sensor_id;sensor_type;location;lat;lon;timestamp;P1;durP1;ratioP1;P2;durP2;ratioP2
21558;SDS011;10940;48.890;8.240;2022-11-15T00:00:50;2.30;;;1.87;;
21558;SDS011;10940;48.890;8.240;2022-11-15T00:03:17;2.53;;;2.40;;
21558;SDS011;10940;48.890;8.240;2022-11-15T00:05:44;3.47;;;2.77;;
21558;SDS011;10940;48.890;8.240;2022-11-15T00:08:10;3.10;;;2.77;;
21558;SDS011;10940;48.890;8.240;2022-11-15T00:10:36;2.57;;;2.37;;
21558;SDS011;10940;48.890;8.240;2022-11-15T00:13:09;5.73;;;2.10;;
21558;SDS011;10940;48.890;8.240;2022-11-15T00:15:40;8.60;;;2.83;;
21558;SDS011;10940;48.890;8.240;2022-11-15T00:18:09;5.23;;;2.43;;
21558;SDS011;10940;48.890;8.240;2022-11-15T00:20:40;4.57;;;2.93;;
21558;SDS011;10940;48.890;8.240;2022-11-15T00:23:06;2.57;;;2.37;;
21558;SDS011;10940;48.890;8.240;2022-11-15T00:25:32;2.77;;;1.73;;
21558;SDS011;10940;48.890;8.240;2022-11-15T00:27:58;1.60;;;1.50;;
21558;SDS011;10940;48.890;8.240;2022-11-15T00:30:25;5.67;;;4.07;;
21558;SDS011;10940;48.890;8.240;2022-11-15T00:32:52;4.97;;;3.63;;
21558;SDS011;10940;48.890;8.240;2022-11-15T00:35:18;1.63;;;1.53;;
21558;SDS011;10940;48.890;8.240;2022-11-15T00:37:44;5.57;;;2.40;;
21558;SDS011;10940;48.890;8.240;2022-11-15T00:40:11;3.27;;;3.03;;
21558;SDS011;10940;48.890;8.240;2022-11-15T00:42:40;44.23;;;2.70;;
21558;SDS011;10940;48.890;8.240;2022-11-15T00:45:06;4.30;;;1.97;;
21558;SDS011;10940;48.890;8.240;2022-11-15T00:47:32;2.60;;;2.40;;
21558;SDS011;10940;48.890;8.240;2022-11-15T00:49:58;1.97;;;1.50;;
21558;SDS011;10940;48.890;8.240;2022-11-15T00:52:26;2.13;;;2.03;;
21558;SDS011;10940;48.890;8.240;2022-11-15T00:54:52;3.47;;;2.37;;
21558;SDS011;10940;48.890;8.240;2022-11-15T00:57:18;4.57;;;1.60;;
21558;SDS011;10940;48.890;8.240;2022-11-15T00:59:43;6.70;;;2.07;;
21558;SDS011;10940;48.890;8.240;2022-11-15T01:02:09;5.73;;;3.27;;
21558;SDS011;10940;48.890;8.240;2022-11-15T01:04:34;2.60;;;2.40;;
21558;SDS011;10940;48.890;8.240;2022-11-15T01:07:00;2.87;;;2.00;;
21558;SDS011;10940;48.890;8.240;2022-11-15T01:09:26;3.50;;;2.43;;
21558;SDS011;10940;48.890;8.240;2022-11-15T01:11:51;1.80;;;1.70;;
21558;SDS011;10940;48.890;8.240;2022-11-15T01:14:17;2.17;;;2.00;;
21558;SDS011;10940;48.890;8.240;2022-11-15T01:16:42;1.73;;;1.67;;
21558;SDS011;10940;48.890;8.240;2022-11-15T01:19:08;2.47;;;2.27;;
21558;SDS011;10940;48.890;8.240;2022-11-15T01:21:34;1.73;;;1.33;;
21558;SDS011;10940;48.890;8.240;2022-11-15T01:24:00;3.07;;;2.47;;
21558;SDS011;10940;48.890;8.240;2022-11-15T01:26:25;6.90;;;2.03;;
21558;SDS011;10940;48.890;8.240;2022-11-15T01:28:51;2.27;;;2.10;;
21558;SDS011;10940;48.890;8.240;2022-11-15T01:31:18;2.83;;;2.00;;
21558;SDS011;10940;48.890;8.240;2022-11-15T01:33:46;1.63;;;1.53;;
21558;SDS011;10940;48.890;8.240;2022-11-15T01:36:13;2.57;;;2.37;;
21558;SDS011;10940;48.890;8.240;2022-11-15T01:38:41;8.53;;;3.07;;
21558;SDS011;10940;48.890;8.240;2022-11-15T01:41:12;1.40;;;1.40;;
21558;SDS011;10940;48.890;8.240;2022-11-15T01:43:43;2.57;;;2.40;;
21558;SDS011;10940;48.890;8.240;2022-11-15T01:48:46;1.53;;;1.20;;
21558;SDS011;10940;48.890;8.240;2022-11-15T01:51:13;1.23;;;0.97;;
21558;SDS011;10940;48.890;8.240;2022-11-15T01:53:43;2.03;;;1.93;;
21558;SDS011;10940;48.890;8.240;2022-11-15T01:56:13;3.17;;;2.70;;
21558;SDS011;10940;48.890;8.240;2022-11-15T01:58:43;1.73;;;1.63;;
21558;SDS011;10940;48.890;8.240;2022-11-15T02:01:11;3.07;;;1.33;;
21558;SDS011;10940;48.890;8.240;2022-11-15T02:03:41;8.10;;;2.43;;
21558;SDS011;10940;48.890;8.240;2022-11-15T02:06:14;0.90;;;0.90;;
21558;SDS011;10940;48.890;8.240;2022-11-15T02:08:40;1.83;;;1.43;;
21558;SDS011;10940;48.890;8.240;2022-11-15T02:11:07;3.73;;;2.90;;
21558;SDS011;10940;48.890;8.240;2022-11-15T02:13:34;1.33;;;1.27;;
21558;SDS011;10940;48.890;8.240;2022-11-15T02:16:09;2.80;;;1.93;;
21558;SDS011;10940;48.890;8.240;2022-11-15T02:21:34;1.97;;;1.87;;
21558;SDS011;10940;48.890;8.240;2022-11-15T02:24:11;2.07;;;1.87;;
21558;SDS011;10940;48.890;8.240;2022-11-15T02:32:45;2.23;;;1.73;;
21558;SDS011;10940;48.890;8.240;2022-11-15T02:43:24;2.00;;;1.70;;
21558;SDS011;10940;48.890;8.240;2022-11-15T02:46:28;2.33;;;2.13;;
21558;SDS011;10940;48.890;8.240;2022-11-15T02:49:27;4.60;;;1.73;;
21558;SDS011;10940;48.890;8.240;2022-11-15T02:51:56;1.77;;;1.57;;
21558;SDS011;10940;48.890;8.240;2022-11-15T02:54:24;1.90;;;1.70;;
21558;SDS011;10940;48.890;8.240;2022-11-15T02:56:52;4.93;;;2.93;;
21558;SDS011;10940;48.890;8.240;2022-11-15T03:02:22;2.20;;;1.97;;
21558;SDS011;10940;48.890;8.240;2022-11-15T03:07:49;3.83;;;2.13;;
21558;SDS011;10940;48.890;8.240;2022-11-15T03:13:33;4.13;;;2.23;;
21558;SDS011;10940;48.890;8.240;2022-11-15T03:16:09;5.33;;;2.00;;
21558;SDS011;10940;48.890;8.240;2022-11-15T03:19:28;1.60;;;1.50;;
21558;SDS011;10940;48.890;8.240;2022-11-15T03:21:53;3.47;;;2.27;;
21558;SDS011;10940;48.890;8.240;2022-11-15T03:24:20;14.30;;;3.83;;
21558;SDS011;10940;48.890;8.240;2022-11-15T03:26:50;11.17;;;3.30;;
21558;SDS011;10940;48.890;8.240;2022-11-15T03:29:19;3.50;;;3.17;;
21558;SDS011;10940;48.890;8.240;2022-11-15T03:31:55;3.57;;;3.27;;
21558;SDS011;10940;48.890;8.240;2022-11-15T03:34:32;3.23;;;2.93;;
21558;SDS011;10940;48.890;8.240;2022-11-15T03:37:05;1.60;;;1.33;;
21558;SDS011;10940;48.890;8.240;2022-11-15T03:39:32;2.33;;;2.13;;
21558;SDS011;10940;48.890;8.240;2022-11-15T03:47:35;2.20;;;2.07;;
21558;SDS011;10940;48.890;8.240;2022-11-15T03:50:12;3.47;;;2.60;;
21558;SDS011;10940;48.890;8.240;2022-11-15T03:52:41;2.07;;;1.83;;
21558;SDS011;10940;48.890;8.240;2022-11-15T03:55:11;3.50;;;1.03;;
21558;SDS011;10940;48.890;8.240;2022-11-15T03:57:40;1.73;;;1.63;;
21558;SDS011;10940;48.890;8.240;2022-11-15T04:00:06;4.20;;;2.57;;
21558;SDS011;10940;48.890;8.240;2022-11-15T04:02:32;7.40;;;2.00;;
21558;SDS011;10940;48.890;8.240;2022-11-15T04:04:58;2.20;;;2.00;;
21558;SDS011;10940;48.890;8.240;2022-11-15T04:07:23;1.93;;;1.83;;
21558;SDS011;10940;48.890;8.240;2022-11-15T04:09:49;9.40;;;2.50;;
21558;SDS011;10940;48.890;8.240;2022-11-15T04:12:33;2.47;;;2.27;;
21558;SDS011;10940;48.890;8.240;2022-11-15T04:15:02;7.50;;;3.40;;
21558;SDS011;10940;48.890;8.240;2022-11-15T04:17:36;4.47;;;3.27;;
21558;SDS011;10940;48.890;8.240;2022-11-15T04:20:12;1.80;;;1.70;;
21558;SDS011;10940;48.890;8.240;2022-11-15T04:23:00;3.60;;;1.73;;
21558;SDS011;10940;48.890;8.240;2022-11-15T04:25:45;6.90;;;1.93;;
21558;SDS011;10940;48.890;8.240;2022-11-15T04:28:14;4.83;;;3.63;;
21558;SDS011;10940;48.890;8.240;2022-11-15T04:30:39;0.97;;;0.97;;
21558;SDS011;10940;48.890;8.240;2022-11-15T04:33:05;1.33;;;1.23;;
21558;SDS011;10940;48.890;8.240;2022-11-15T04:35:31;1.93;;;1.83;;
21558;SDS011;10940;48.890;8.240;2022-11-15T04:37:56;1.90;;;1.80;;
21558;SDS011;10940;48.890;8.240;2022-11-15T04:40:23;1.90;;;1.53;;
21558;SDS011;10940;48.890;8.240;2022-11-15T04:42:48;2.30;;;1.67;;
21558;SDS011;10940;48.890;8.240;2022-11-15T04:45:14;1.37;;;1.27;;
21558;SDS011;10940;48.890;8.240;2022-11-15T04:47:41;1.17;;;1.17;;
21558;SDS011;10940;48.890;8.240;2022-11-15T04:50:08;1.13;;;1.13;;
21558;SDS011;10940;48.890;8.240;2022-11-15T04:52:37;1.83;;;1.73;;
21558;SDS011;10940;48.890;8.240;2022-11-15T04:55:03;3.10;;;1.80;;
21558;SDS011;10940;48.890;8.240;2022-11-15T04:57:29;1.43;;;1.33;;
21558;SDS011;10940;48.890;8.240;2022-11-15T04:59:54;1.60;;;1.50;;
21558;SDS011;10940;48.890;8.240;2022-11-15T05:02:20;2.37;;;2.20;;
21558;SDS011;10940;48.890;8.240;2022-11-15T05:04:46;1.10;;;1.10;;
21558;SDS011;10940;48.890;8.240;2022-11-15T05:07:11;6.17;;;1.53;;
21558;SDS011;10940;48.890;8.240;2022-11-15T05:09:39;2.20;;;2.03;;
21558;SDS011;10940;48.890;8.240;2022-11-15T05:12:05;2.77;;;2.57;;
21558;SDS011;10940;48.890;8.240;2022-11-15T05:14:31;4.47;;;2.90;;
21558;SDS011;10940;48.890;8.240;2022-11-15T05:16:56;1.87;;;1.77;;
21558;SDS011;10940;48.890;8.240;2022-11-15T05:19:22;1.60;;;1.50;;
21558;SDS011;10940;48.890;8.240;2022-11-15T05:21:48;1.67;;;1.63;;
21558;SDS011;10940;48.890;8.240;2022-11-15T05:24:13;1.57;;;1.50;;
21558;SDS011;10940;48.890;8.240;2022-11-15T05:26:39;2.00;;;1.73;;
21558;SDS011;10940;48.890;8.240;2022-11-15T05:29:05;2.87;;;1.50;;
21558;SDS011;10940;48.890;8.240;2022-11-15T05:31:30;4.83;;;2.33;;
21558;SDS011;10940;48.890;8.240;2022-11-15T05:33:56;5.73;;;2.00;;
21558;SDS011;10940;48.890;8.240;2022-11-15T05:36:29;1.90;;;1.73;;
21558;SDS011;10940;48.890;8.240;2022-11-15T05:38:59;2.03;;;1.37;;
21558;SDS011;10940;48.890;8.240;2022-11-15T05:41:27;2.10;;;1.90;;
21558;SDS011;10940;48.890;8.240;2022-11-15T05:43:59;4.70;;;2.37;;
21558;SDS011;10940;48.890;8.240;2022-11-15T05:46:25;4.77;;;2.23;;
21558;SDS011;10940;48.890;8.240;2022-11-15T05:48:52;5.03;;;1.57;;
21558;SDS011;10940;48.890;8.240;2022-11-15T05:51:18;2.60;;;1.97;;
21558;SDS011;10940;48.890;8.240;2022-11-15T05:53:46;6.37;;;2.63;;
21558;SDS011;10940;48.890;8.240;2022-11-15T05:56:13;11.97;;;2.40;;
21558;SDS011;10940;48.890;8.240;2022-11-15T05:58:39;35.47;;;3.20;;
21558;SDS011;10940;48.890;8.240;2022-11-15T06:01:05;5.83;;;3.53;;
21558;SDS011;10940;48.890;8.240;2022-11-15T06:03:31;1.03;;;0.97;;
21558;SDS011;10940;48.890;8.240;2022-11-15T06:05:56;3.40;;;2.60;;
21558;SDS011;10940;48.890;8.240;2022-11-15T06:08:22;9.17;;;2.90;;
21558;SDS011;10940;48.890;8.240;2022-11-15T06:10:48;5.53;;;2.10;;
21558;SDS011;10940;48.890;8.240;2022-11-15T06:13:13;1.70;;;1.60;;
21558;SDS011;10940;48.890;8.240;2022-11-15T06:15:39;5.73;;;2.67;;
21558;SDS011;10940;48.890;8.240;2022-11-15T06:18:05;2.77;;;1.83;;
21558;SDS011;10940;48.890;8.240;2022-11-15T06:20:31;1.53;;;1.43;;
21558;SDS011;10940;48.890;8.240;2022-11-15T06:22:58;4.80;;;2.97;;
21558;SDS011;10940;48.890;8.240;2022-11-15T06:25:28;2.30;;;2.20;;
21558;SDS011;10940;48.890;8.240;2022-11-15T06:27:55;1.57;;;1.47;;
21558;SDS011;10940;48.890;8.240;2022-11-15T06:30:23;2.07;;;1.97;;
21558;SDS011;10940;48.890;8.240;2022-11-15T06:32:50;4.23;;;3.07;;
21558;SDS011;10940;48.890;8.240;2022-11-15T06:35:15;3.37;;;2.00;;
21558;SDS011;10940;48.890;8.240;2022-11-15T06:37:42;2.30;;;1.80;;
21558;SDS011;10940;48.890;8.240;2022-11-15T06:40:07;2.67;;;2.23;;
21558;SDS011;10940;48.890;8.240;2022-11-15T06:45:42;6.67;;;2.70;;
21558;SDS011;10940;48.890;8.240;2022-11-15T06:48:07;2.60;;;1.87;;
21558;SDS011;10940;48.890;8.240;2022-11-15T06:50:33;2.17;;;2.07;;
21558;SDS011;10940;48.890;8.240;2022-11-15T06:53:03;2.67;;;2.00;;
21558;SDS011;10940;48.890;8.240;2022-11-15T06:55:29;5.63;;;2.07;;
21558;SDS011;10940;48.890;8.240;2022-11-15T06:57:55;3.47;;;2.03;;
21558;SDS011;10940;48.890;8.240;2022-11-15T07:00:21;2.57;;;2.17;;
21558;SDS011;10940;48.890;8.240;2022-11-15T07:02:47;3.00;;;2.73;;
21558;SDS011;10940;48.890;8.240;2022-11-15T07:05:14;3.87;;;2.43;;
21558;SDS011;10940;48.890;8.240;2022-11-15T07:07:40;5.90;;;1.60;;
21558;SDS011;10940;48.890;8.240;2022-11-15T07:10:06;6.60;;;2.87;;
21558;SDS011;10940;48.890;8.240;2022-11-15T07:12:32;1.13;;;1.13;;
21558;SDS011;10940;48.890;8.240;2022-11-15T07:14:58;3.20;;;2.43;;
21558;SDS011;10940;48.890;8.240;2022-11-15T07:17:24;2.67;;;2.13;;
21558;SDS011;10940;48.890;8.240;2022-11-15T07:19:49;2.70;;;2.50;;
21558;SDS011;10940;48.890;8.240;2022-11-15T07:22:15;1.77;;;1.17;;
21558;SDS011;10940;48.890;8.240;2022-11-15T07:24:40;1.23;;;1.23;;
21558;SDS011;10940;48.890;8.240;2022-11-15T07:27:06;2.00;;;1.53;;
21558;SDS011;10940;48.890;8.240;2022-11-15T07:29:32;1.73;;;1.50;;
21558;SDS011;10940;48.890;8.240;2022-11-15T07:31:57;3.13;;;2.37;;
21558;SDS011;10940;48.890;8.240;2022-11-15T07:34:24;3.53;;;2.00;;
21558;SDS011;10940;48.890;8.240;2022-11-15T07:36:49;5.50;;;2.60;;
21558;SDS011;10940;48.890;8.240;2022-11-15T07:39:15;3.97;;;2.47;;
21558;SDS011;10940;48.890;8.240;2022-11-15T07:41:41;2.77;;;2.30;;
21558;SDS011;10940;48.890;8.240;2022-11-15T07:44:08;2.53;;;2.33;;
21558;SDS011;10940;48.890;8.240;2022-11-15T07:46:34;1.90;;;1.67;;
21558;SDS011;10940;48.890;8.240;2022-11-15T07:48:59;1.43;;;1.33;;
21558;SDS011;10940;48.890;8.240;2022-11-15T07:51:25;4.13;;;1.97;;
21558;SDS011;10940;48.890;8.240;2022-11-15T07:53:51;4.00;;;3.63;;
21558;SDS011;10940;48.890;8.240;2022-11-15T07:56:16;2.63;;;1.67;;
21558;SDS011;10940;48.890;8.240;2022-11-15T07:58:42;2.57;;;1.60;;
21558;SDS011;10940;48.890;8.240;2022-11-15T08:01:10;3.30;;;1.50;;
21558;SDS011;10940;48.890;8.240;2022-11-15T08:06:05;4.60;;;2.73;;
21558;SDS011;10940;48.890;8.240;2022-11-15T08:08:31;2.70;;;2.03;;
21558;SDS011;10940;48.890;8.240;2022-11-15T08:10:57;9.13;;;3.10;;
21558;SDS011;10940;48.890;8.240;2022-11-15T08:13:26;2.37;;;1.70;;
21558;SDS011;10940;48.890;8.240;2022-11-15T08:15:56;5.33;;;2.17;;
21558;SDS011;10940;48.890;8.240;2022-11-15T08:18:26;2.70;;;2.50;;
21558;SDS011;10940;48.890;8.240;2022-11-15T08:20:52;16.00;;;1.20;;
21558;SDS011;10940;48.890;8.240;2022-11-15T08:23:17;2.73;;;2.23;;
21558;SDS011;10940;48.890;8.240;2022-11-15T08:25:43;1.63;;;1.53;;
21558;SDS011;10940;48.890;8.240;2022-11-15T08:28:09;1.67;;;1.57;;
21558;SDS011;10940;48.890;8.240;2022-11-15T08:30:36;1.40;;;1.30;;
21558;SDS011;10940;48.890;8.240;2022-11-15T08:33:03;1.90;;;1.60;;
21558;SDS011;10940;48.890;8.240;2022-11-15T08:35:29;1.07;;;1.07;;
21558;SDS011;10940;48.890;8.240;2022-11-15T08:37:55;1.70;;;1.03;;
21558;SDS011;10940;48.890;8.240;2022-11-15T08:40:21;1.07;;;1.07;;
21558;SDS011;10940;48.890;8.240;2022-11-15T08:42:47;4.53;;;2.17;;
21558;SDS011;10940;48.890;8.240;2022-11-15T08:45:12;2.67;;;1.23;;
21558;SDS011;10940;48.890;8.240;2022-11-15T08:47:38;4.40;;;2.17;;
21558;SDS011;10940;48.890;8.240;2022-11-15T08:50:04;15.70;;;2.07;;
21558;SDS011;10940;48.890;8.240;2022-11-15T08:52:30;1.40;;;1.30;;
21558;SDS011;10940;48.890;8.240;2022-11-15T08:54:56;1.23;;;1.23;;
21558;SDS011;10940;48.890;8.240;2022-11-15T08:57:22;2.10;;;1.60;;
21558;SDS011;10940;48.890;8.240;2022-11-15T08:59:48;1.87;;;1.50;;
21558;SDS011;10940;48.890;8.240;2022-11-15T09:02:14;2.13;;;2.00;;
21558;SDS011;10940;48.890;8.240;2022-11-15T09:04:40;1.93;;;1.80;;
21558;SDS011;10940;48.890;8.240;2022-11-15T09:07:07;1.23;;;1.20;;
21558;SDS011;10940;48.890;8.240;2022-11-15T09:09:37;13.40;;;2.80;;
21558;SDS011;10940;48.890;8.240;2022-11-15T09:12:03;2.30;;;2.07;;
21558;SDS011;10940;48.890;8.240;2022-11-15T09:14:30;4.67;;;2.77;;
21558;SDS011;10940;48.890;8.240;2022-11-15T09:16:56;2.50;;;2.30;;
21558;SDS011;10940;48.890;8.240;2022-11-15T09:19:22;2.13;;;1.97;;
21558;SDS011;10940;48.890;8.240;2022-11-15T09:21:47;2.07;;;1.90;;
21558;SDS011;10940;48.890;8.240;2022-11-15T09:24:13;13.20;;;2.63;;
21558;SDS011;10940;48.890;8.240;2022-11-15T09:26:39;1.57;;;1.47;;
21558;SDS011;10940;48.890;8.240;2022-11-15T09:29:05;1.60;;;1.17;;
21558;SDS011;10940;48.890;8.240;2022-11-15T09:31:31;3.53;;;2.20;;
21558;SDS011;10940;48.890;8.240;2022-11-15T09:33:57;4.97;;;0.80;;
21558;SDS011;10940;48.890;8.240;2022-11-15T09:36:23;0.87;;;0.87;;
21558;SDS011;10940;48.890;8.240;2022-11-15T09:38:48;15.13;;;3.83;;
21558;SDS011;10940;48.890;8.240;2022-11-15T09:44:03;24.87;;;8.30;;
21558;SDS011;10940;48.890;8.240;2022-11-15T09:46:48;6.40;;;5.80;;
21558;SDS011;10940;48.890;8.240;2022-11-15T09:49:31;10.47;;;5.57;;
21558;SDS011;10940;48.890;8.240;2022-11-15T09:51:57;15.30;;;8.23;;
21558;SDS011;10940;48.890;8.240;2022-11-15T09:56:49;5.20;;;4.70;;
21558;SDS011;10940;48.890;8.240;2022-11-15T10:05:01;9.93;;;3.20;;
21558;SDS011;10940;48.890;8.240;2022-11-15T10:07:37;3.33;;;2.90;;
21558;SDS011;10940;48.890;8.240;2022-11-15T10:12:48;3.47;;;2.80;;
21558;SDS011;10940;48.890;8.240;2022-11-15T10:15:17;7.30;;;3.33;;
21558;SDS011;10940;48.890;8.240;2022-11-15T10:20:40;6.63;;;2.77;;
21558;SDS011;10940;48.890;8.240;2022-11-15T10:23:23;2.30;;;2.20;;
21558;SDS011;10940;48.890;8.240;2022-11-15T10:25:55;2.77;;;2.57;;
21558;SDS011;10940;48.890;8.240;2022-11-15T10:28:30;2.77;;;2.10;;
21558;SDS011;10940;48.890;8.240;2022-11-15T10:30:57;2.40;;;2.17;;
21558;SDS011;10940;48.890;8.240;2022-11-15T10:38:48;5.00;;;2.40;;
21558;SDS011;10940;48.890;8.240;2022-11-15T10:43:45;4.37;;;2.20;;
21558;SDS011;10940;48.890;8.240;2022-11-15T10:46:25;1.57;;;1.40;;
21558;SDS011;10940;48.890;8.240;2022-11-15T10:48:51;2.20;;;2.03;;
21558;SDS011;10940;48.890;8.240;2022-11-15T10:51:35;1.80;;;1.70;;
21558;SDS011;10940;48.890;8.240;2022-11-15T10:54:08;3.23;;;2.47;;
21558;SDS011;10940;48.890;8.240;2022-11-15T10:56:38;0.97;;;0.97;;
21558;SDS011;10940;48.890;8.240;2022-11-15T10:59:09;2.40;;;1.80;;
21558;SDS011;10940;48.890;8.240;2022-11-15T11:01:45;3.40;;;2.27;;
21558;SDS011;10940;48.890;8.240;2022-11-15T11:04:12;6.97;;;3.47;;
21558;SDS011;10940;48.890;8.240;2022-11-15T11:12:06;2.17;;;1.60;;
21558;SDS011;10940;48.890;8.240;2022-11-15T11:14:36;2.00;;;1.60;;
21558;SDS011;10940;48.890;8.240;2022-11-15T11:17:13;2.97;;;2.33;;
21558;SDS011;10940;48.890;8.240;2022-11-15T11:29:00;1.53;;;1.43;;
21558;SDS011;10940;48.890;8.240;2022-11-15T11:34:44;1.03;;;1.03;;
21558;SDS011;10940;48.890;8.240;2022-11-15T11:37:18;2.17;;;1.67;;
21558;SDS011;10940;48.890;8.240;2022-11-15T11:40:12;2.37;;;1.63;;
21558;SDS011;10940;48.890;8.240;2022-11-15T11:42:59;3.47;;;2.07;;
21558;SDS011;10940;48.890;8.240;2022-11-15T11:45:58;1.37;;;1.27;;
21558;SDS011;10940;48.890;8.240;2022-11-15T11:50:53;2.13;;;1.00;;
21558;SDS011;10940;48.890;8.240;2022-11-15T11:56:04;1.37;;;1.27;;
21558;SDS011;10940;48.890;8.240;2022-11-15T11:58:44;0.67;;;0.67;;
21558;SDS011;10940;48.890;8.240;2022-11-15T12:04:05;0.50;;;0.50;;
21558;SDS011;10940;48.890;8.240;2022-11-15T12:07:02;1.47;;;1.37;;
21558;SDS011;10940;48.890;8.240;2022-11-15T12:12:45;1.03;;;0.97;;
21558;SDS011;10940;48.890;8.240;2022-11-15T12:15:29;1.03;;;1.03;;
21558;SDS011;10940;48.890;8.240;2022-11-15T12:18:01;1.00;;;0.77;;
21558;SDS011;10940;48.890;8.240;2022-11-15T12:20:28;1.17;;;1.07;;
21558;SDS011;10940;48.890;8.240;2022-11-15T12:23:05;1.43;;;1.37;;
21558;SDS011;10940;48.890;8.240;2022-11-15T12:28:55;1.80;;;1.13;;
21558;SDS011;10940;48.890;8.240;2022-11-15T12:36:47;0.80;;;0.80;;
21558;SDS011;10940;48.890;8.240;2022-11-15T12:39:15;1.33;;;0.97;;
21558;SDS011;10940;48.890;8.240;2022-11-15T12:42:34;0.80;;;0.80;;
21558;SDS011;10940;48.890;8.240;2022-11-15T13:02:33;1.67;;;0.97;;
21558;SDS011;10940;48.890;8.240;2022-11-15T13:12:52;2.23;;;1.10;;
21558;SDS011;10940;48.890;8.240;2022-11-15T13:16:00;1.73;;;1.00;;
21558;SDS011;10940;48.890;8.240;2022-11-15T13:21:16;0.83;;;0.73;;
21558;SDS011;10940;48.890;8.240;2022-11-15T13:24:03;1.33;;;0.43;;
21558;SDS011;10940;48.890;8.240;2022-11-15T13:26:29;2.27;;;1.73;;
21558;SDS011;10940;48.890;8.240;2022-11-15T13:28:56;3.37;;;2.13;;
21558;SDS011;10940;48.890;8.240;2022-11-15T13:31:35;1.67;;;0.97;;
21558;SDS011;10940;48.890;8.240;2022-11-15T13:34:38;1.90;;;1.80;;
21558;SDS011;10940;48.890;8.240;2022-11-15T13:37:01;0.80;;;0.80;;
21558;SDS011;10940;48.890;8.240;2022-11-15T13:41:54;2.23;;;2.03;;
21558;SDS011;10940;48.890;8.240;2022-11-15T13:44:22;1.40;;;1.30;;
21558;SDS011;10940;48.890;8.240;2022-11-15T13:47:00;1.20;;;1.20;;
21558;SDS011;10940;48.890;8.240;2022-11-15T13:49:30;1.23;;;1.03;;
21558;SDS011;10940;48.890;8.240;2022-11-15T13:51:57;3.40;;;1.10;;
21558;SDS011;10940;48.890;8.240;2022-11-15T13:54:35;1.43;;;1.37;;
21558;SDS011;10940;48.890;8.240;2022-11-15T13:59:45;0.90;;;0.90;;
21558;SDS011;10940;48.890;8.240;2022-11-15T14:02:14;1.33;;;1.23;;
21558;SDS011;10940;48.890;8.240;2022-11-15T14:07:27;1.90;;;1.80;;
21558;SDS011;10940;48.890;8.240;2022-11-15T14:09:53;0.87;;;0.87;;
21558;SDS011;10940;48.890;8.240;2022-11-15T14:12:38;0.80;;;0.80;;
21558;SDS011;10940;48.890;8.240;2022-11-15T14:18:05;2.60;;;0.97;;
21558;SDS011;10940;48.890;8.240;2022-11-15T14:20:32;1.47;;;1.37;;
21558;SDS011;10940;48.890;8.240;2022-11-15T14:23:01;0.60;;;0.60;;
21558;SDS011;10940;48.890;8.240;2022-11-15T14:25:51;0.87;;;0.87;;
21558;SDS011;10940;48.890;8.240;2022-11-15T14:30:51;2.40;;;1.77;;
21558;SDS011;10940;48.890;8.240;2022-11-15T14:35:53;1.20;;;1.10;;
21558;SDS011;10940;48.890;8.240;2022-11-15T14:38:21;1.70;;;1.60;;
21558;SDS011;10940;48.890;8.240;2022-11-15T14:40:46;1.23;;;1.13;;
21558;SDS011;10940;48.890;8.240;2022-11-15T14:43:13;5.03;;;2.37;;
21558;SDS011;10940;48.890;8.240;2022-11-15T14:45:39;6.63;;;1.87;;
21558;SDS011;10940;48.890;8.240;2022-11-15T14:48:05;3.60;;;2.07;;
21558;SDS011;10940;48.890;8.240;2022-11-15T14:50:31;3.33;;;1.43;;
21558;SDS011;10940;48.890;8.240;2022-11-15T14:52:57;1.73;;;1.33;;
21558;SDS011;10940;48.890;8.240;2022-11-15T14:55:24;3.40;;;3.03;;
21558;SDS011;10940;48.890;8.240;2022-11-15T14:57:56;1.73;;;1.53;;
21558;SDS011;10940;48.890;8.240;2022-11-15T15:00:22;2.13;;;1.67;;
21558;SDS011;10940;48.890;8.240;2022-11-15T15:02:50;4.00;;;1.77;;
21558;SDS011;10940;48.890;8.240;2022-11-15T15:05:23;2.83;;;1.27;;
21558;SDS011;10940;48.890;8.240;2022-11-15T15:07:51;1.67;;;1.57;;
21558;SDS011;10940;48.890;8.240;2022-11-15T15:10:18;2.00;;;1.27;;
21558;SDS011;10940;48.890;8.240;2022-11-15T15:12:44;1.57;;;1.20;;
21558;SDS011;10940;48.890;8.240;2022-11-15T15:15:26;3.03;;;1.77;;
21558;SDS011;10940;48.890;8.240;2022-11-15T15:17:58;4.93;;;1.60;;
21558;SDS011;10940;48.890;8.240;2022-11-15T15:20:23;1.90;;;1.63;;
21558;SDS011;10940;48.890;8.240;2022-11-15T15:22:49;8.87;;;3.27;;
21558;SDS011;10940;48.890;8.240;2022-11-15T15:27:57;2.77;;;2.07;;
21558;SDS011;10940;48.890;8.240;2022-11-15T15:30:23;2.37;;;2.17;;
21558;SDS011;10940;48.890;8.240;2022-11-15T15:32:50;3.70;;;1.63;;
21558;SDS011;10940;48.890;8.240;2022-11-15T15:35:16;2.33;;;1.90;;
21558;SDS011;10940;48.890;8.240;2022-11-15T15:37:43;3.30;;;3.00;;
21558;SDS011;10940;48.890;8.240;2022-11-15T15:40:20;3.87;;;2.63;;
21558;SDS011;10940;48.890;8.240;2022-11-15T15:42:47;8.57;;;2.03;;
21558;SDS011;10940;48.890;8.240;2022-11-15T15:45:13;6.50;;;3.37;;
21558;SDS011;10940;48.890;8.240;2022-11-15T15:47:39;4.30;;;2.30;;
21558;SDS011;10940;48.890;8.240;2022-11-15T15:50:14;4.87;;;2.60;;
21558;SDS011;10940;48.890;8.240;2022-11-15T15:52:47;4.27;;;3.10;;
21558;SDS011;10940;48.890;8.240;2022-11-15T15:55:13;4.70;;;2.90;;
21558;SDS011;10940;48.890;8.240;2022-11-15T15:57:38;3.17;;;2.37;;
21558;SDS011;10940;48.890;8.240;2022-11-15T16:00:04;3.37;;;2.13;;
21558;SDS011;10940;48.890;8.240;2022-11-15T16:02:30;8.93;;;3.97;;
21558;SDS011;10940;48.890;8.240;2022-11-15T16:04:56;3.93;;;2.67;;
21558;SDS011;10940;48.890;8.240;2022-11-15T16:07:22;4.30;;;3.27;;
21558;SDS011;10940;48.890;8.240;2022-11-15T16:09:49;1.70;;;1.60;;
21558;SDS011;10940;48.890;8.240;2022-11-15T16:12:28;3.00;;;2.07;;
21558;SDS011;10940;48.890;8.240;2022-11-15T16:14:55;3.67;;;2.97;;
21558;SDS011;10940;48.890;8.240;2022-11-15T16:17:21;3.90;;;3.40;;
21558;SDS011;10940;48.890;8.240;2022-11-15T16:19:49;3.27;;;2.90;;
21558;SDS011;10940;48.890;8.240;2022-11-15T16:22:15;11.43;;;4.13;;
21558;SDS011;10940;48.890;8.240;2022-11-15T16:24:41;3.57;;;2.43;;
21558;SDS011;10940;48.890;8.240;2022-11-15T16:27:17;3.77;;;2.43;;
21558;SDS011;10940;48.890;8.240;2022-11-15T16:29:44;3.03;;;2.57;;
21558;SDS011;10940;48.890;8.240;2022-11-15T16:32:10;2.53;;;2.30;;
21558;SDS011;10940;48.890;8.240;2022-11-15T16:34:36;1.63;;;1.53;;
21558;SDS011;10940;48.890;8.240;2022-11-15T16:37:02;2.87;;;2.37;;
21558;SDS011;10940;48.890;8.240;2022-11-15T16:39:28;6.67;;;3.63;;
21558;SDS011;10940;48.890;8.240;2022-11-15T16:41:55;2.00;;;1.90;;
21558;SDS011;10940;48.890;8.240;2022-11-15T16:44:22;7.10;;;4.47;;
21558;SDS011;10940;48.890;8.240;2022-11-15T16:46:48;4.37;;;2.83;;
21558;SDS011;10940;48.890;8.240;2022-11-15T16:49:16;8.90;;;4.87;;
21558;SDS011;10940;48.890;8.240;2022-11-15T16:51:49;6.73;;;5.00;;
21558;SDS011;10940;48.890;8.240;2022-11-15T16:54:15;10.00;;;5.17;;
21558;SDS011;10940;48.890;8.240;2022-11-15T16:56:41;17.20;;;5.03;;
21558;SDS011;10940;48.890;8.240;2022-11-15T16:59:08;16.87;;;4.10;;
21558;SDS011;10940;48.890;8.240;2022-11-15T17:01:38;5.30;;;4.77;;
21558;SDS011;10940;48.890;8.240;2022-11-15T17:04:10;14.80;;;4.47;;
21558;SDS011;10940;48.890;8.240;2022-11-15T17:06:40;11.57;;;4.63;;
21558;SDS011;10940;48.890;8.240;2022-11-15T17:09:12;11.17;;;5.67;;
21558;SDS011;10940;48.890;8.240;2022-11-15T17:11:40;6.83;;;5.27;;
21558;SDS011;10940;48.890;8.240;2022-11-15T17:14:06;10.40;;;4.87;;
21558;SDS011;10940;48.890;8.240;2022-11-15T17:16:32;12.23;;;6.50;;
21558;SDS011;10940;48.890;8.240;2022-11-15T17:18:59;5.13;;;4.33;;
21558;SDS011;10940;48.890;8.240;2022-11-15T17:21:24;7.23;;;6.13;;
21558;SDS011;10940;48.890;8.240;2022-11-15T17:23:52;10.40;;;7.60;;
21558;SDS011;10940;48.890;8.240;2022-11-15T17:28:48;12.50;;;5.30;;
21558;SDS011;10940;48.890;8.240;2022-11-15T17:31:19;7.27;;;3.60;;